Time;durP1;ratioP1;P1;durP2;ratioP2;P2;SDS_P1;SDS_P2;PMS_P1;PMS_P2;Temp;Humidity;BMP_temperature;BMP_pressure;BME280_temperature;BME280_humidity;BME280_pressure;Samples;Min_cycle;Max_cycle;Signal;HPM_P1;HPM_P2
2023/03/21 00:01:26;;;;;;;48.57;25.07;;;10.50;99.90;;;;;;4987505;28;20234;-81
2023/03/21 00:03:53;;;;;;;40.57;24.10;;;10.50;99.90;;;;;;4982240;28;20950;-80
2023/03/21 00:06:21;;;;;;;40.00;22.83;;;10.50;99.90;;;;;;4979358;28;20207;-79
2023/03/21 00:08:52;;;;;;;46.77;25.33;;;10.50;99.90;;;;;;4980844;28;20208;-80
2023/03/21 00:11:20;;;;;;;43.13;23.13;;;10.50;99.90;;;;;;4986920;28;20211;-79
2023/03/21 00:13:47;;;;;;;45.40;25.10;;;10.50;99.90;;;;;;4981175;28;20246;-81
2023/03/21 00:16:16;;;;;;;45.83;26.03;;;10.50;99.90;;;;;;4981786;28;20203;-80
2023/03/21 00:18:53;;;;;;;50.33;26.70;;;10.50;99.90;;;;;;4981632;28;20234;-80
2023/03/21 00:21:27;;;;;;;50.07;26.03;;;10.50;99.90;;;;;;4977976;28;20231;-80
2023/03/21 00:24:14;;;;;;;47.10;25.57;;;10.50;99.90;;;;;;4982301;28;20226;-80
2023/03/21 00:26:40;;;;;;;50.20;25.93;;;10.50;99.90;;;;;;4978991;28;20617;-79
2023/03/21 00:29:07;;;;;;;50.37;26.63;;;10.60;99.90;;;;;;4980641;28;20203;-80
2023/03/21 00:31:34;;;;;;;51.53;27.03;;;10.50;99.90;;;;;;4981915;28;20272;-80
2023/03/21 00:34:01;;;;;;;49.77;25.83;;;10.40;99.90;;;;;;4983727;28;20862;-79
2023/03/21 00:36:28;;;;;;;49.23;26.47;;;10.40;99.90;;;;;;4985801;28;20206;-81
2023/03/21 00:38:55;;;;;;;50.43;25.50;;;10.50;99.90;;;;;;4979688;28;20301;-80
2023/03/21 00:41:22;;;;;;;46.97;24.50;;;10.50;99.90;;;;;;4977364;28;20250;-81
2023/03/21 00:44:06;;;;;;;43.27;24.87;;;10.50;99.90;;;;;;4987305;28;20238;-81
2023/03/21 00:46:34;;;;;;;47.83;26.17;;;10.40;99.90;;;;;;4981739;28;20199;-81
2023/03/21 00:49:12;;;;;;;48.80;25.70;;;10.40;99.90;;;;;;4980826;28;20224;-79
2023/03/21 00:51:39;;;;;;;46.50;26.50;;;10.40;99.90;;;;;;4978290;28;20208;-80
2023/03/21 00:54:09;;;;;;;47.93;26.00;;;10.50;99.90;;;;;;4981483;28;20720;-80
2023/03/21 00:56:36;;;;;;;46.30;24.83;;;10.40;99.90;;;;;;4984914;28;20211;-79
2023/03/21 00:59:03;;;;;;;47.63;25.90;;;10.40;99.90;;;;;;4982735;28;20203;-79
2023/03/21 01:01:30;;;;;;;49.13;26.07;;;10.40;99.90;;;;;;4978573;28;20239;-80
2023/03/21 01:04:04;;;;;;;53.63;26.60;;;10.50;99.90;;;;;;4980984;28;20233;-80
2023/03/21 01:06:38;;;;;;;49.70;25.53;;;10.50;99.90;;;;;;4981860;28;20210;-79
2023/03/21 01:09:08;;;;;;;43.17;24.33;;;10.50;99.90;;;;;;4978640;28;20310;-80
2023/03/21 01:11:35;;;;;;;42.27;24.63;;;10.40;99.90;;;;;;4982968;28;20684;-80
2023/03/21 01:14:03;;;;;;;45.87;24.47;;;10.40;99.90;;;;;;4982570;28;20216;-79
2023/03/21 01:16:48;;;;;;;44.20;23.43;;;10.40;99.90;;;;;;4981220;28;20203;-80
2023/03/21 01:19:17;;;;;;;43.67;23.30;;;10.30;99.90;;;;;;4982579;28;20910;-83
2023/03/21 01:21:52;;;;;;;43.03;23.77;;;10.40;99.90;;;;;;4979976;28;20214;-79
2023/03/21 01:24:18;;;;;;;43.83;23.67;;;10.30;99.90;;;;;;4983089;28;20569;-79
2023/03/21 01:26:45;;;;;;;46.80;22.83;;;10.30;99.90;;;;;;4982976;28;20257;-80
2023/03/21 01:29:12;;;;;;;41.77;23.57;;;10.30;99.90;;;;;;4977451;28;20254;-81
2023/03/21 01:31:39;;;;;;;48.20;23.47;;;10.30;99.90;;;;;;4982249;28;20307;-79
2023/03/21 01:34:06;;;;;;;45.30;23.87;;;10.30;99.90;;;;;;4981932;28;20220;-81
2023/03/21 01:36:32;;;;;;;47.00;24.20;;;10.40;99.90;;;;;;4984009;28;20758;-80
2023/03/21 01:39:00;;;;;;;47.47;23.97;;;10.40;99.90;;;;;;4989913;28;20237;-82
2023/03/21 01:41:30;;;;;;;49.93;26.37;;;10.40;99.90;;;;;;4978378;28;20215;-80
2023/03/21 01:44:15;;;;;;;47.27;23.90;;;10.40;99.90;;;;;;4984892;28;20285;-80
2023/03/21 01:46:52;;;;;;;44.33;24.00;;;10.40;99.90;;;;;;4986373;28;20598;-79
2023/03/21 01:49:44;;;;;;;46.60;25.13;;;10.40;99.90;;;;;;4982466;28;20309;-80
2023/03/21 01:52:18;;;;;;;48.27;24.83;;;10.40;99.90;;;;;;4983055;28;20187;-80
2023/03/21 01:55:05;;;;;;;44.83;23.70;;;10.40;99.90;;;;;;4987398;28;20265;-80
2023/03/21 01:57:41;;;;;;;47.17;24.77;;;10.40;99.90;;;;;;4984249;28;20211;-80
2023/03/21 02:00:28;;;;;;;52.57;25.97;;;10.40;99.90;;;;;;4981831;28;20200;-79
2023/03/21 02:02:58;;;;;;;51.07;26.20;;;10.40;99.90;;;;;;4984396;28;20290;-79
2023/03/21 02:06:13;;;;;;;49.23;27.00;;;10.40;99.90;;;;;;4984267;28;20269;-81
2023/03/21 02:08:40;;;;;;;52.43;26.77;;;10.30;99.90;;;;;;4957285;28;20619;-80
2023/03/21 02:11:08;;;;;;;57.23;28.50;;;10.30;99.90;;;;;;4981393;28;20293;-80
2023/03/21 02:13:36;;;;;;;54.63;28.07;;;10.30;99.90;;;;;;4985069;28;20313;-81
2023/03/21 02:16:16;;;;;;;52.37;28.27;;;10.30;99.90;;;;;;4981033;28;20218;-80
2023/03/21 02:19:25;;;;;;;51.17;27.67;;;10.30;99.90;;;;;;4983621;28;20215;-80
2023/03/21 02:22:37;;;;;;;55.63;27.00;;;10.30;99.90;;;;;;4981572;28;20214;-80
2023/03/21 02:25:28;;;;;;;55.83;28.93;;;10.20;99.90;;;;;;4998030;28;20580;-79
2023/03/21 02:28:20;;;;;;;66.10;30.33;;;10.30;99.90;;;;;;4990984;28;20246;-82
2023/03/21 02:31:18;;;;;;;57.57;28.50;;;10.20;99.90;;;;;;4979402;28;20203;-81
2023/03/21 02:34:14;;;;;;;59.33;30.53;;;10.20;99.90;;;;;;4985927;28;20235;-79
2023/03/21 02:37:03;;;;;;;62.33;31.03;;;10.30;99.90;;;;;;4980816;28;20330;-81
2023/03/21 02:39:52;;;;;;;60.93;30.20;;;10.20;99.90;;;;;;4990294;28;20217;-80
2023/03/21 02:42:43;;;;;;;64.00;30.63;;;10.20;99.90;;;;;;4981185;28;20254;-80
2023/03/21 02:45:17;;;;;;;59.43;28.43;;;10.20;99.90;;;;;;4980961;28;20239;-81
2023/03/21 02:47:51;;;;;;;59.00;29.90;;;10.20;99.90;;;;;;4984613;28;20302;-79
2023/03/21 02:50:25;;;;;;;67.37;30.57;;;10.20;99.90;;;;;;4983360;28;20199;-81
2023/03/21 02:52:53;;;;;;;62.23;31.27;;;10.20;99.90;;;;;;4979316;28;20627;-80
2023/03/21 02:55:25;;;;;;;61.90;30.27;;;10.10;99.90;;;;;;4988412;28;20616;-79
2023/03/21 02:57:54;;;;;;;62.80;30.97;;;10.20;99.90;;;;;;4981160;28;20306;-80
2023/03/21 03:00:26;;;;;;;54.23;28.37;;;10.20;99.90;;;;;;4984456;28;20302;-80
2023/03/21 03:02:54;;;;;;;60.93;30.10;;;10.20;99.90;;;;;;4982769;28;20684;-80
2023/03/21 03:05:42;;;;;;;62.07;28.83;;;10.30;99.90;;;;;;4983266;28;20212;-80
2023/03/21 03:08:19;;;;;;;58.80;29.57;;;10.20;99.90;;;;;;4986671;28;20226;-79
2023/03/21 03:11:21;;;;;;;57.20;28.90;;;10.20;99.90;;;;;;4985227;28;20200;-81
2023/03/21 03:14:15;;;;;;;59.53;29.73;;;10.20;99.90;;;;;;4982174;28;20592;-80
2023/03/21 03:17:11;;;;;;;56.73;28.57;;;10.20;99.90;;;;;;4980440;28;20574;-82
2023/03/21 03:20:04;;;;;;;56.10;28.40;;;10.20;99.90;;;;;;4981059;28;20572;-80
2023/03/21 03:22:53;;;;;;;64.40;30.33;;;10.20;99.90;;;;;;4986264;28;20265;-80
2023/03/21 03:25:27;;;;;;;52.43;27.40;;;10.20;99.90;;;;;;4987350;28;20218;-79
2023/03/21 03:28:10;;;;;;;56.03;29.00;;;10.20;99.90;;;;;;4987517;28;20196;-82
2023/03/21 03:30:38;;;;;;;57.13;29.93;;;10.20;99.90;;;;;;4982433;28;20679;-82
2023/03/21 03:33:16;;;;;;;59.50;31.23;;;10.20;99.90;;;;;;4990736;28;20250;-79
2023/03/21 03:35:45;;;;;;;55.10;29.13;;;10.10;99.90;;;;;;4991259;28;20262;-79
2023/03/21 03:38:29;;;;;;;55.73;28.83;;;10.20;99.90;;;;;;4983046;28;20652;-82
2023/03/21 03:41:14;;;;;;;53.50;28.73;;;10.20;99.90;;;;;;4986700;28;20289;-80
2023/03/21 03:43:47;;;;;;;49.67;27.67;;;10.20;99.90;;;;;;4979665;28;20223;-80
2023/03/21 03:46:18;;;;;;;53.10;29.33;;;10.20;99.90;;;;;;4981288;28;20699;-80
2023/03/21 03:48:53;;;;;;;54.57;28.60;;;10.20;99.90;;;;;;4981739;28;20387;-81
2023/03/21 03:51:34;;;;;;;51.03;28.17;;;10.20;99.90;;;;;;4984063;28;20290;-82
2023/03/21 03:54:07;;;;;;;55.03;27.53;;;10.20;99.90;;;;;;4981394;28;20305;-80
2023/03/21 03:56:35;;;;;;;51.87;27.07;;;10.20;99.90;;;;;;4981343;28;20697;-81
2023/03/21 03:59:03;;;;;;;55.10;28.13;;;10.20;99.90;;;;;;4980831;28;20343;-80
2023/03/21 04:01:30;;;;;;;52.40;27.07;;;10.20;99.90;;;;;;4988433;28;20213;-82
2023/03/21 04:03:59;;;;;;;54.20;26.77;;;10.20;99.90;;;;;;4976242;28;20236;-80
2023/03/21 04:06:38;;;;;;;51.83;26.67;;;10.20;99.90;;;;;;4979887;28;20204;-82
2023/03/21 04:09:07;;;;;;;55.07;27.57;;;10.20;99.90;;;;;;4979299;28;20572;-79
2023/03/21 04:11:46;;;;;;;46.73;24.93;;;10.30;99.90;;;;;;4982123;28;20321;-80
2023/03/21 04:14:13;;;;;;;49.80;25.83;;;10.30;99.90;;;;;;4980026;28;20239;-80
2023/03/21 04:16:40;;;;;;;48.90;24.53;;;10.30;99.90;;;;;;4986972;28;20590;-81
2023/03/21 04:19:06;;;;;;;49.33;24.17;;;10.30;99.90;;;;;;4980829;28;20219;-80
2023/03/21 04:21:33;;;;;;;42.13;23.70;;;10.20;99.90;;;;;;4975939;28;20673;-81
2023/03/21 04:24:00;;;;;;;49.80;23.63;;;10.30;99.90;;;;;;4984194;28;20231;-80
2023/03/21 04:26:31;;;;;;;43.13;22.77;;;10.30;99.90;;;;;;4984300;28;20200;-80
2023/03/21 04:28:59;;;;;;;41.47;22.70;;;10.30;99.90;;;;;;4981886;28;20230;-79
2023/03/21 04:31:29;;;;;;;44.37;22.73;;;10.30;99.90;;;;;;4976319;28;20214;-81
2023/03/21 04:33:58;;;;;;;47.57;23.30;;;10.20;99.90;;;;;;4985573;28;20492;-80
2023/03/21 04:36:29;;;;;;;55.47;25.40;;;10.20;99.90;;;;;;4976291;28;20293;-82
2023/03/21 04:39:00;;;;;;;43.67;22.90;;;10.20;99.90;;;;;;4982464;28;20234;-80
2023/03/21 04:41:27;;;;;;;38.87;23.30;;;10.20;99.90;;;;;;4978047;28;20206;-79
2023/03/21 04:43:55;;;;;;;44.23;24.57;;;10.20;99.90;;;;;;4979448;28;20255;-78
2023/03/21 04:46:22;;;;;;;46.73;23.93;;;10.20;99.90;;;;;;4982997;28;20309;-79
2023/03/21 04:48:49;;;;;;;44.27;23.80;;;10.30;99.90;;;;;;4979139;28;20255;-81
2023/03/21 04:51:17;;;;;;;44.17;23.40;;;10.30;99.90;;;;;;4982230;28;20215;-81
2023/03/21 04:53:45;;;;;;;48.67;23.40;;;10.30;99.90;;;;;;4978654;28;20184;-80
2023/03/21 04:56:12;;;;;;;41.80;22.87;;;10.30;99.90;;;;;;4988136;28;20265;-81
2023/03/21 04:58:40;;;;;;;46.50;23.53;;;10.30;99.90;;;;;;4979491;28;20258;-82
2023/03/21 05:01:07;;;;;;;43.47;23.03;;;10.30;99.90;;;;;;4983448;28;20595;-80
2023/03/21 05:03:38;;;;;;;43.93;23.27;;;10.30;99.90;;;;;;4979838;28;20216;-79
2023/03/21 05:06:09;;;;;;;46.53;23.77;;;10.30;99.90;;;;;;4983440;28;20242;-79
2023/03/21 05:08:37;;;;;;;44.40;24.13;;;10.30;99.90;;;;;;4978857;28;20203;-80
2023/03/21 05:11:04;;;;;;;46.50;23.93;;;10.30;99.90;;;;;;4984351;28;20203;-79
2023/03/21 05:13:31;;;;;;;51.27;25.50;;;10.30;99.90;;;;;;4991675;28;20344;-81
2023/03/21 05:15:57;;;;;;;46.53;24.87;;;10.30;99.90;;;;;;4984844;28;20572;-81
2023/03/21 05:18:25;;;;;;;48.60;24.87;;;10.30;99.90;;;;;;4978959;28;20227;-79
2023/03/21 05:20:55;;;;;;;51.57;26.27;;;10.30;99.90;;;;;;4987142;28;20298;-80
2023/03/21 05:23:23;;;;;;;47.77;25.87;;;10.30;99.90;;;;;;4984890;28;20293;-82
2023/03/21 05:25:50;;;;;;;49.63;25.57;;;10.30;99.90;;;;;;4988054;28;20290;-79
2023/03/21 05:28:17;;;;;;;52.10;25.13;;;10.30;99.90;;;;;;4996777;28;20266;-78
2023/03/21 05:30:45;;;;;;;54.60;24.90;;;10.30;99.90;;;;;;4986865;28;20329;-80
2023/03/21 05:33:12;;;;;;;47.33;24.07;;;10.30;99.90;;;;;;4985201;28;20254;-81
2023/03/21 05:35:39;;;;;;;44.83;22.57;;;10.20;99.90;;;;;;4984716;28;20200;-81
2023/03/21 05:38:06;;;;;;;46.20;22.43;;;10.30;99.90;;;;;;4984945;28;20214;-79
2023/03/21 05:40:33;;;;;;;45.00;23.63;;;10.20;99.90;;;;;;4982181;28;20251;-82
2023/03/21 05:43:01;;;;;;;42.83;22.07;;;10.30;99.90;;;;;;4982289;28;20265;-79
2023/03/21 05:45:28;;;;;;;42.30;22.20;;;10.30;99.90;;;;;;4985918;28;20246;-82
2023/03/21 05:47:55;;;;;;;37.83;20.53;;;10.20;99.90;;;;;;4989029;28;20227;-81
2023/03/21 05:50:21;;;;;;;37.30;20.60;;;10.20;99.90;;;;;;4983876;28;20218;-80
2023/03/21 05:52:48;;;;;;;36.70;19.17;;;10.20;99.90;;;;;;4987920;28;20213;-79
2023/03/21 05:55:15;;;;;;;39.33;20.67;;;10.20;99.90;;;;;;4989477;28;20613;-81
2023/03/21 05:57:42;;;;;;;37.17;18.87;;;10.20;99.90;;;;;;4986352;28;20215;-80
2023/03/21 06:00:10;;;;;;;36.00;18.83;;;10.20;99.90;;;;;;4984072;28;20661;-79
2023/03/21 06:02:38;;;;;;;39.70;18.40;;;10.20;99.90;;;;;;4993218;28;20727;-81
2023/03/21 06:05:05;;;;;;;40.07;18.33;;;10.20;99.90;;;;;;4983235;28;20288;-81
2023/03/21 06:07:33;;;;;;;37.33;19.10;;;10.20;99.90;;;;;;4984432;28;20195;-80
2023/03/21 06:09:59;;;;;;;39.07;19.47;;;10.20;99.90;;;;;;4990262;28;20206;-82
2023/03/21 06:12:26;;;;;;;41.40;18.63;;;10.20;99.90;;;;;;4992426;28;20242;-80
2023/03/21 06:14:53;;;;;;;40.47;19.23;;;10.20;99.90;;;;;;4982233;28;20231;-81
2023/03/21 06:17:20;;;;;;;33.80;17.23;;;10.20;99.90;;;;;;4983187;28;20646;-79
2023/03/21 06:19:46;;;;;;;35.27;17.57;;;10.20;99.90;;;;;;4982530;28;20677;-79
2023/03/21 06:22:13;;;;;;;35.43;17.80;;;10.20;99.90;;;;;;4982362;28;20208;-79
2023/03/21 06:24:40;;;;;;;39.70;18.20;;;10.20;99.90;;;;;;4981708;28;20303;-79
2023/03/21 06:27:06;;;;;;;33.90;16.87;;;10.20;99.90;;;;;;4986735;28;20220;-81
2023/03/21 06:29:33;;;;;;;34.23;18.07;;;10.30;99.90;;;;;;4981113;28;20200;-79
2023/03/21 06:32:01;;;;;;;32.07;17.80;;;10.30;99.90;;;;;;4983600;28;20322;-79
2023/03/21 06:34:27;;;;;;;33.37;17.20;;;10.20;99.90;;;;;;4987575;28;20218;-79
2023/03/21 06:36:54;;;;;;;36.90;17.73;;;10.30;99.90;;;;;;4982135;28;20243;-79
2023/03/21 06:39:21;;;;;;;35.00;17.30;;;10.30;99.90;;;;;;4981428;28;20242;-81
2023/03/21 06:41:48;;;;;;;32.23;17.03;;;10.30;99.90;;;;;;4986305;28;20200;-80
2023/03/21 06:44:15;;;;;;;44.23;17.63;;;10.30;99.90;;;;;;4985706;28;20276;-79
2023/03/21 06:46:41;;;;;;;29.90;16.50;;;10.30;99.90;;;;;;4983338;28;20207;-79
2023/03/21 06:49:08;;;;;;;28.60;15.40;;;10.40;99.90;;;;;;4984420;28;20618;-79
2023/03/21 06:51:36;;;;;;;34.03;17.13;;;10.40;99.90;;;;;;4985264;28;20229;-79
2023/03/21 06:54:03;;;;;;;30.17;16.00;;;10.40;99.90;;;;;;4984012;28;20668;-79
2023/03/21 06:56:29;;;;;;;30.63;16.47;;;10.40;99.90;;;;;;4986110;28;20195;-80
2023/03/21 06:58:56;;;;;;;34.10;16.80;;;10.40;99.90;;;;;;4984206;28;20199;-80
2023/03/21 07:01:23;;;;;;;27.43;15.17;;;10.50;99.90;;;;;;4979525;28;20549;-80
2023/03/21 07:03:52;;;;;;;32.63;16.10;;;10.50;99.90;;;;;;4977969;28;20226;-80
2023/03/21 07:06:19;;;;;;;31.60;16.67;;;10.50;99.90;;;;;;4988683;28;20278;-79
2023/03/21 07:08:46;;;;;;;35.80;15.03;;;10.60;99.90;;;;;;4989274;28;20193;-82
2023/03/21 07:11:15;;;;;;;27.87;15.37;;;10.60;99.90;;;;;;4994115;28;20239;-82
2023/03/21 07:13:42;;;;;;;36.60;16.87;;;10.70;99.90;;;;;;4988041;28;20234;-84
2023/03/21 07:16:09;;;;;;;29.33;15.07;;;10.70;99.90;;;;;;4982817;28;20208;-80
2023/03/21 07:18:37;;;;;;;31.70;15.80;;;10.70;99.90;;;;;;4982881;28;20294;-80
2023/03/21 07:21:03;;;;;;;30.77;15.03;;;10.80;99.90;;;;;;4987156;28;20208;-78
2023/03/21 07:23:30;;;;;;;31.87;15.07;;;10.80;99.90;;;;;;4982326;28;20208;-81
2023/03/21 07:25:57;;;;;;;29.00;15.03;;;10.80;99.90;;;;;;4981070;28;20241;-79
2023/03/21 07:28:24;;;;;;;26.67;14.67;;;10.80;99.90;;;;;;4990436;28;20210;-81
2023/03/21 07:30:54;;;;;;;28.03;15.53;;;10.80;99.90;;;;;;4987694;28;20208;-81
2023/03/21 07:33:22;;;;;;;30.30;14.90;;;10.80;99.90;;;;;;4980433;28;20220;-80
2023/03/21 07:35:50;;;;;;;30.13;15.37;;;10.80;99.90;;;;;;4987661;28;20195;-80
2023/03/21 07:38:17;;;;;;;28.33;14.50;;;10.90;99.90;;;;;;4982718;28;20207;-82
2023/03/21 07:40:45;;;;;;;34.27;15.67;;;10.90;99.90;;;;;;4989299;28;20631;-81
2023/03/21 07:43:13;;;;;;;33.87;15.50;;;10.90;99.90;;;;;;4980658;28;20204;-80
2023/03/21 07:45:41;;;;;;;30.10;15.57;;;10.90;99.90;;;;;;4981597;28;20715;-81
2023/03/21 07:48:11;;;;;;;32.13;15.27;;;11.00;99.90;;;;;;4982492;28;20741;-80
2023/03/21 07:50:39;;;;;;;26.97;14.67;;;11.10;99.90;;;;;;4985179;28;20250;-82
2023/03/21 07:53:07;;;;;;;32.13;15.40;;;11.10;99.90;;;;;;4981952;28;20199;-85
2023/03/21 07:55:34;;;;;;;31.57;15.37;;;11.20;99.90;;;;;;4990934;28;20555;-80
2023/03/21 07:58:02;;;;;;;25.90;13.63;;;11.20;99.90;;;;;;4990179;28;20211;-79
2023/03/21 08:00:30;;;;;;;21.67;13.47;;;11.20;99.90;;;;;;4979991;28;20291;-79
2023/03/21 08:02:58;;;;;;;28.57;13.73;;;11.20;99.90;;;;;;4983994;28;20237;-79
2023/03/21 08:05:29;;;;;;;30.67;13.50;;;11.30;99.90;;;;;;4979204;28;20683;-81
2023/03/21 08:07:56;;;;;;;29.07;12.50;;;11.30;99.90;;;;;;4980982;28;20239;-79
2023/03/21 08:10:23;;;;;;;26.93;12.67;;;11.20;99.90;;;;;;4982716;28;20614;-82
2023/03/21 08:12:50;;;;;;;27.10;12.70;;;11.10;99.90;;;;;;4987608;28;20708;-79
2023/03/21 08:15:17;;;;;;;20.83;11.87;;;11.10;99.90;;;;;;4982717;28;20246;-80
2023/03/21 08:17:46;;;;;;;25.90;13.23;;;11.10;99.90;;;;;;4980823;28;20220;-80
2023/03/21 08:20:16;;;;;;;22.10;11.97;;;11.10;99.90;;;;;;4980518;28;20317;-81
2023/03/21 08:22:43;;;;;;;21.10;11.33;;;11.10;99.90;;;;;;4980959;28;20214;-80
2023/03/21 08:25:16;;;;;;;22.13;11.33;;;11.10;99.90;;;;;;4983501;28;20231;-80
2023/03/21 08:27:44;;;;;;;23.10;11.63;;;11.10;99.90;;;;;;4987009;28;20239;-80
2023/03/21 08:30:13;;;;;;;24.53;11.43;;;11.10;99.90;;;;;;4984013;28;20220;-80
2023/03/21 08:32:41;;;;;;;24.57;11.43;;;11.10;99.90;;;;;;4988281;28;20214;-80
2023/03/21 08:35:10;;;;;;;24.93;12.90;;;11.10;99.90;;;;;;4977682;28;20367;-81
2023/03/21 08:37:37;;;;;;;24.67;11.53;;;11.10;99.90;;;;;;4978783;28;20238;-80
2023/03/21 08:40:10;;;;;;;27.13;12.17;;;11.10;99.90;;;;;;4981557;28;20227;-79
2023/03/21 08:42:37;;;;;;;27.70;12.37;;;11.10;99.90;;;;;;4971900;28;20212;-81
2023/03/21 08:45:05;;;;;;;21.63;11.63;;;11.10;99.90;;;;;;4972497;28;20245;-80
2023/03/21 08:47:32;;;;;;;26.20;13.13;;;11.20;99.90;;;;;;4986309;28;20242;-80
2023/03/21 08:49:59;;;;;;;24.83;12.23;;;11.20;99.90;;;;;;4981588;28;20683;-80
2023/03/21 08:52:27;;;;;;;24.10;11.33;;;11.30;99.90;;;;;;4985539;28;20317;-81
2023/03/21 08:54:54;;;;;;;28.37;11.87;;;11.30;99.90;;;;;;4984035;28;20681;-80
2023/03/21 08:57:20;;;;;;;22.77;11.77;;;11.30;99.90;;;;;;4982695;28;20576;-82
2023/03/21 08:59:47;;;;;;;25.70;11.53;;;11.30;99.90;;;;;;4978706;28;20196;-81
2023/03/21 09:02:15;;;;;;;26.73;11.97;;;11.40;99.90;;;;;;4978431;28;20303;-83
2023/03/21 09:04:43;;;;;;;22.73;11.97;;;11.40;99.90;;;;;;4982160;28;20706;-82
2023/03/21 09:07:13;;;;;;;23.80;12.07;;;11.50;99.90;;;;;;4983752;28;20207;-80
2023/03/21 09:09:41;;;;;;;23.73;11.37;;;11.60;99.90;;;;;;4981096;28;20213;-81
2023/03/21 09:12:08;;;;;;;26.37;12.03;;;11.70;99.90;;;;;;4990630;28;20293;-80
2023/03/21 09:14:34;;;;;;;20.10;11.57;;;11.70;99.90;;;;;;4980854;28;20294;-81
2023/03/21 09:17:01;;;;;;;24.70;11.20;;;11.70;99.90;;;;;;4979880;28;20722;-81
2023/03/21 09:19:29;;;;;;;19.07;10.90;;;11.70;99.90;;;;;;4981669;28;20767;-81
2023/03/21 09:21:56;;;;;;;25.27;11.13;;;11.80;99.90;;;;;;4978391;28;20215;-82
2023/03/21 09:24:23;;;;;;;20.17;10.80;;;11.80;99.90;;;;;;4982276;28;20202;-82
2023/03/21 09:26:50;;;;;;;19.27;10.90;;;11.90;99.90;;;;;;4984430;28;20246;-79
2023/03/21 09:29:20;;;;;;;22.40;11.10;;;11.90;99.90;;;;;;4984440;28;20203;-81
2023/03/21 09:31:47;;;;;;;21.97;10.83;;;12.00;99.90;;;;;;4980306;28;20254;-81
2023/03/21 09:34:14;;;;;;;23.67;10.43;;;12.00;99.90;;;;;;4981513;28;20215;-80
2023/03/21 09:36:43;;;;;;;16.07;9.60;;;12.00;99.90;;;;;;4977302;28;20584;-81
2023/03/21 09:39:11;;;;;;;16.17;9.00;;;12.10;99.90;;;;;;4971292;28;20215;-83
2023/03/21 09:41:59;;;;;;;24.03;10.50;;;12.10;99.90;;;;;;4971217;28;20208;-81
2023/03/21 09:44:37;;;;;;;20.03;10.40;;;12.20;99.90;;;;;;4980457;28;20715;-81
2023/03/21 09:47:24;;;;;;;19.63;9.23;;;12.30;99.90;;;;;;4979962;28;20222;-80
2023/03/21 09:50:16;;;;;;;15.93;8.90;;;12.40;99.90;;;;;;4979167;28;20751;-82
2023/03/21 09:52:49;;;;;;;15.47;8.27;;;12.40;99.90;;;;;;4978805;28;20208;-81
2023/03/21 09:55:33;;;;;;;15.90;9.23;;;12.40;99.90;;;;;;4985323;28;20224;-81
2023/03/21 09:58:24;;;;;;;15.53;8.43;;;12.40;99.90;;;;;;4986757;28;20203;-81
2023/03/21 10:00:58;;;;;;;21.77;8.80;;;12.50;99.90;;;;;;4982834;28;20208;-81
2023/03/21 10:03:33;;;;;;;16.33;8.40;;;12.50;99.90;;;;;;4981576;28;20588;-78
2023/03/21 10:06:07;;;;;;;15.37;8.37;;;12.50;99.90;;;;;;4989175;28;20580;-82
2023/03/21 10:08:37;;;;;;;15.53;8.20;;;12.60;99.90;;;;;;4986939;28;20283;-81
2023/03/21 10:11:26;;;;;;;17.60;8.67;;;12.60;99.90;;;;;;4987846;28;20721;-80
2023/03/21 10:14:12;;;;;;;18.30;8.30;;;12.70;99.90;;;;;;4988106;28;20203;-81
2023/03/21 10:16:50;;;;;;;17.20;8.97;;;12.70;99.90;;;;;;4996008;28;20251;-81
2023/03/21 10:19:18;;;;;;;16.07;8.10;;;12.60;99.90;;;;;;4991582;28;20231;-81
2023/03/21 10:21:47;;;;;;;16.97;8.63;;;12.60;99.90;;;;;;4985201;28;20211;-82
2023/03/21 10:24:30;;;;;;;18.80;8.23;;;12.70;99.90;;;;;;4984269;28;20298;-80
2023/03/21 10:26:58;;;;;;;15.23;7.77;;;12.70;99.90;;;;;;4994289;28;20229;-79
2023/03/21 10:29:42;;;;;;;14.10;8.30;;;12.60;99.90;;;;;;4983918;28;20550;-81
2023/03/21 10:32:12;;;;;;;18.53;8.63;;;12.60;99.90;;;;;;4982832;28;20199;-82
2023/03/21 10:34:48;;;;;;;15.20;7.63;;;12.60;99.90;;;;;;4983110;28;20225;-81
2023/03/21 10:37:16;;;;;;;12.87;8.17;;;12.70;99.90;;;;;;4980343;28;20668;-81
2023/03/21 10:39:46;;;;;;;13.87;7.93;;;12.80;99.90;;;;;;4979917;28;20658;-81
2023/03/21 10:42:31;;;;;;;14.03;8.20;;;12.90;99.90;;;;;;4979992;28;20214;-82
2023/03/21 10:44:58;;;;;;;16.13;8.77;;;13.00;99.90;;;;;;4984738;28;20234;-81
2023/03/21 10:47:33;;;;;;;15.23;7.77;;;13.00;99.90;;;;;;4978643;28;20208;-81
2023/03/21 10:50:05;;;;;;;11.87;7.60;;;13.10;99.90;;;;;;4984223;28;20214;-81
2023/03/21 10:52:40;;;;;;;12.93;7.40;;;13.10;99.90;;;;;;4991569;28;20206;-80
2023/03/21 10:55:24;;;;;;;14.30;7.43;;;13.30;99.90;;;;;;4980944;28;20218;-81
2023/03/21 10:58:07;;;;;;;13.43;8.10;;;13.30;99.90;;;;;;4981578;28;20291;-81
2023/03/21 11:00:38;;;;;;;15.20;7.50;;;13.30;99.90;;;;;;4980081;28;20238;-81
2023/03/21 11:03:07;;;;;;;14.47;8.43;;;13.40;99.90;;;;;;4988184;28;20227;-80
2023/03/21 11:05:40;;;;;;;13.87;7.27;;;13.40;99.90;;;;;;4983085;28;20251;-81
2023/03/21 11:08:17;;;;;;;14.40;7.40;;;13.50;99.90;;;;;;4979825;28;20227;-81
2023/03/21 11:10:50;;;;;;;14.63;7.50;;;13.60;99.90;;;;;;4992605;28;20290;-80
2023/03/21 11:13:22;;;;;;;13.63;7.20;;;13.70;99.90;;;;;;4998881;28;20210;-81
2023/03/21 11:15:57;;;;;;;12.43;6.57;;;13.80;99.90;;;;;;4986193;28;20729;-82
2023/03/21 11:18:26;;;;;;;11.20;6.73;;;13.80;99.90;;;;;;4984996;28;20309;-81
2023/03/21 11:20:56;;;;;;;11.83;6.80;;;13.80;99.90;;;;;;4982533;28;20399;-81
2023/03/21 11:23:29;;;;;;;13.60;7.13;;;13.90;99.90;;;;;;4987438;28;20202;-83
2023/03/21 11:25:59;;;;;;;13.27;7.33;;;14.10;99.90;;;;;;4986188;28;20729;-81
2023/03/21 11:28:34;;;;;;;16.97;8.30;;;14.20;99.90;;;;;;4985638;28;20214;-81
2023/03/21 11:31:03;;;;;;;12.97;6.83;;;14.30;99.90;;;;;;4983967;28;20254;-80
2023/03/21 11:33:39;;;;;;;15.77;7.45;;;14.40;99.90;;;;;;4985734;28;20249;-81
2023/03/21 11:36:18;;;;;;;12.00;7.03;;;14.60;99.90;;;;;;4983576;28;20219;-79
2023/03/21 11:38:55;;;;;;;11.95;6.63;;;14.70;99.90;;;;;;4983885;28;20301;-80
2023/03/21 11:41:32;;;;;;;16.30;7.20;;;14.70;99.90;;;;;;4984747;28;20308;-81
2023/03/21 11:44:01;;;;;;;12.95;7.38;;;14.70;99.90;;;;;;4982963;28;20211;-79
2023/03/21 11:46:30;;;;;;;14.02;7.43;;;14.50;99.90;;;;;;4981855;28;20270;-81
2023/03/21 11:48:59;;;;;;;11.37;6.57;;;14.60;99.90;;;;;;4986047;28;20242;-81
2023/03/21 11:51:44;;;;;;;13.03;7.07;;;14.50;99.90;;;;;;4983497;28;20234;-81
2023/03/21 11:54:39;;;;;;;17.10;6.73;;;14.50;99.90;;;;;;4976997;28;20212;-79
2023/03/21 11:57:28;;;;;;;10.50;6.80;;;14.40;99.90;;;;;;4978548;28;20298;-81
2023/03/21 12:00:21;;;;;;;12.17;6.80;;;14.40;99.90;;;;;;4993154;28;20688;-80
2023/03/21 12:03:20;;;;;;;13.13;6.47;;;14.10;99.90;;;;;;4986408;28;20212;-79
2023/03/21 12:05:53;;;;;;;14.23;6.90;;;14.00;99.90;;;;;;4978538;28;20235;-81
2023/03/21 12:08:45;;;;;;;12.40;6.43;;;14.10;99.90;;;;;;4985101;28;20298;-81
2023/03/21 12:11:18;;;;;;;13.03;6.80;;;14.30;99.90;;;;;;4989678;28;20207;-81
2023/03/21 12:13:51;;;;;;;12.43;6.72;;;14.50;99.90;;;;;;4987922;28;20205;-80
2023/03/21 12:16:39;;;;;;;15.93;7.10;;;14.60;99.90;;;;;;4978867;28;20208;-80
2023/03/21 12:19:20;;;;;;;11.07;6.65;;;14.60;99.90;;;;;;4981320;28;20251;-79
2023/03/21 12:21:59;;;;;;;10.15;6.38;;;14.70;99.90;;;;;;4979733;28;20704;-80
2023/03/21 12:24:42;;;;;;;18.73;7.40;;;14.80;99.90;;;;;;4981371;28;20246;-81
2023/03/21 12:27:32;;;;;;;12.07;6.43;;;14.80;99.90;;;;;;4989199;28;20210;-85
2023/03/21 12:30:43;;;;;;;11.52;6.70;;;14.80;99.90;;;;;;4988594;28;20238;-83
2023/03/21 12:33:26;;;;;;;13.60;6.80;;;14.70;99.90;;;;;;4907991;29;20690;-82
2023/03/21 12:36:18;;;;;;;13.57;6.85;;;14.80;99.90;;;;;;4978350;28;20246;-82
2023/03/21 12:38:59;;;;;;;10.38;6.47;;;14.70;99.90;;;;;;4983832;28;20198;-82
2023/03/21 12:41:54;;;;;;;14.02;6.95;;;14.60;99.90;;;;;;4977200;28;20200;-84
2023/03/21 12:44:24;;;;;;;17.30;7.63;;;14.60;99.90;;;;;;4997078;28;20228;-80
2023/03/21 12:46:54;;;;;;;12.50;6.80;;;14.60;99.90;;;;;;4982443;28;20231;-82
2023/03/21 12:49:41;;;;;;;14.27;7.88;;;14.40;99.90;;;;;;4982958;28;20230;-82
2023/03/21 12:52:17;;;;;;;11.77;6.53;;;14.20;99.90;;;;;;4980527;28;20617;-80
2023/03/21 12:55:23;;;;;;;12.63;6.47;;;14.30;99.90;;;;;;4991011;28;20697;-80
2023/03/21 12:58:17;;;;;;;17.97;7.50;;;14.30;99.90;;;;;;4988227;28;20207;-81